Time;durP1;ratioP1;P1;durP2;ratioP2;P2;SDS_P1;SDS_P2;PMS_P1;PMS_P2;Temp;Humidity;BMP_temperature;BMP_pressure;BME280_temperature;BME280_humidity;BME280_pressure;Samples;Min_cycle;Max_cycle;Signal;HPM_P1;HPM_P2
2022/11/23 00:01:53;;;;;;;3.88;1.20;;;;;;;14.72;80.59;101038.78;4965291;28;20047;-89
2022/11/23 00:04:23;;;;;;;4.03;1.40;;;;;;;14.66;79.36;101049.09;4943275;28;20067;-87
2022/11/23 00:06:56;;;;;;;3.28;1.30;;;;;;;14.60;80.35;101044.66;4954406;28;20040;-88
2022/11/23 00:09:27;;;;;;;3.05;1.60;;;;;;;14.54;78.71;101051.44;4950684;28;20481;-83
2022/11/23 00:11:55;;;;;;;6.72;1.80;;;;;;;14.45;78.02;101060.84;4960024;28;20047;-87
2022/11/23 00:14:24;;;;;;;4.32;1.60;;;;;;;14.36;78.53;101055.47;4967064;28;20773;-89
2022/11/23 00:16:53;;;;;;;2.33;1.15;;;;;;;14.30;78.45;101070.09;4963395;28;20069;-84
2022/11/23 00:19:22;;;;;;;4.90;1.25;;;;;;;14.20;78.66;101069.03;4955690;28;20035;-78
2022/11/23 00:21:50;;;;;;;3.45;1.60;;;;;;;14.08;78.74;101074.00;4952314;28;20050;-80
2022/11/23 00:24:19;;;;;;;8.25;1.35;;;;;;;13.92;79.60;101078.00;4946807;28;20055;-78
2022/11/23 00:26:49;;;;;;;1.90;1.00;;;;;;;13.79;80.48;101087.28;4957798;28;20160;-84
2022/11/23 00:29:20;;;;;;;4.50;1.48;;;;;;;13.69;81.32;101098.31;4950456;28;20083;-81
2022/11/23 00:31:51;;;;;;;1.50;0.70;;;;;;;13.58;82.87;101116.25;4955085;28;20140;-81
2022/11/23 00:34:20;;;;;;;1.52;0.90;;;;;;;13.48;84.32;101107.38;4953405;28;20066;-79
2022/11/23 00:36:49;;;;;;;3.17;0.68;;;;;;;13.41;85.92;101121.09;4947248;28;20047;-80
2022/11/23 00:39:17;;;;;;;4.40;1.33;;;;;;;13.33;85.95;101122.59;4956166;28;20085;-84
2022/11/23 00:41:53;;;;;;;1.20;0.55;;;;;;;13.28;86.10;101135.47;4942660;28;20051;-83
2022/11/23 00:44:23;;;;;;;5.47;0.60;;;;;;;13.19;86.44;101138.72;4953368;28;20051;-85
2022/11/23 00:46:51;;;;;;;3.20;0.65;;;;;;;13.15;86.75;101147.28;4959201;28;20082;-83
2022/11/23 00:49:41;;;;;;;4.70;0.88;;;;;;;13.09;87.45;101144.50;4952579;28;20053;-82
2022/11/23 00:52:10;;;;;;;3.53;0.70;;;;;;;13.00;88.14;101144.28;4955261;28;20055;-82
2022/11/23 00:54:39;;;;;;;4.97;0.82;;;;;;;12.90;89.04;101150.09;4953696;28;20110;-84
2022/11/23 00:57:12;;;;;;;1.67;0.50;;;;;;;12.85;89.15;101154.25;4950956;28;20094;-82
2022/11/23 00:59:41;;;;;;;3.92;0.70;;;;;;;12.82;90.15;101159.38;4953240;28;20047;-80
2022/11/23 01:02:10;;;;;;;4.13;0.35;;;;;;;12.75;90.25;101161.81;4954594;28;20139;-84
2022/11/23 01:04:40;;;;;;;1.58;0.45;;;;;;;12.73;90.52;101168.66;4951794;28;20085;-84
2022/11/23 01:07:09;;;;;;;2.13;0.65;;;;;;;12.70;90.73;101184.19;4951754;28;20047;-84
2022/11/23 01:09:40;;;;;;;2.67;0.52;;;;;;;12.64;90.65;101181.41;4955100;28;20055;-85
2022/11/23 01:12:10;;;;;;;2.75;0.88;;;;;;;12.58;90.85;101192.50;4946200;28;20051;-83
2022/11/23 01:14:39;;;;;;;2.75;0.98;;;;;;;12.53;91.49;101190.63;4946639;28;20040;-82
2022/11/23 01:17:12;;;;;;;1.42;0.40;;;;;;;12.49;91.55;101188.78;4953444;28;20528;-87
2022/11/23 01:19:41;;;;;;;3.92;0.98;;;;;;;12.44;94.36;101199.03;4947881;28;20039;-83
2022/11/23 01:22:10;;;;;;;2.53;0.50;;;;;;;12.40;95.03;101197.19;4945834;28;21212;-83
2022/11/23 01:24:38;;;;;;;3.63;0.63;;;;;;;12.26;99.37;101203.69;4950408;28;20059;-83
2022/11/23 01:27:09;;;;;;;4.75;0.57;;;;;;;12.09;100.00;101214.41;4953475;28;20134;-83
2022/11/23 01:29:37;;;;;;;3.90;0.90;;;;;;;11.97;100.00;101220.94;4944494;28;20067;-83
2022/11/23 01:32:06;;;;;;;1.60;0.60;;;;;;;11.86;100.00;101229.22;4949007;28;20069;-84
2022/11/23 01:34:35;;;;;;;2.88;0.52;;;;;;;11.76;100.00;101240.13;4949480;28;20047;-83
2022/11/23 01:37:04;;;;;;;1.33;0.90;;;;;;;11.64;100.00;101238.03;4953273;28;20053;-88
2022/11/23 01:39:35;;;;;;;2.47;0.52;;;;;;;11.56;100.00;101260.22;4959044;28;20043;-87
2022/11/23 01:42:07;;;;;;;2.30;0.82;;;;;;;11.52;100.00;101263.53;4948177;28;20086;-88
2022/11/23 01:44:38;;;;;;;6.03;0.60;;;;;;;11.49;100.00;101264.31;4952086;28;20055;-88
2022/11/23 01:47:09;;;;;;;1.63;0.85;;;;;;;11.50;100.00;101283.34;4956914;28;20051;-88
2022/11/23 01:49:45;;;;;;;3.03;0.65;;;;;;;11.49;100.00;101279.84;4955064;28;20054;-86
2022/11/23 01:52:18;;;;;;;5.30;0.60;;;;;;;11.45;100.00;101296.16;4958573;28;20051;-87
2022/11/23 01:54:50;;;;;;;2.78;0.75;;;;;;;11.37;100.00;101300.16;4957072;28;20560;-86
2022/11/23 01:57:31;;;;;;;3.28;1.10;;;;;;;11.31;100.00;101299.94;4957036;28;20043;-89
2022/11/23 02:00:05;;;;;;;1.60;0.98;;;;;;;11.25;100.00;101310.13;4964582;28;20047;-89
2022/11/23 02:02:38;;;;;;;5.85;1.42;;;;;;;11.22;100.00;101317.75;4961208;28;20075;-88
2022/11/23 02:05:10;;;;;;;3.85;0.85;;;;;;;11.16;100.00;101333.09;4964664;28;20047;-87
2022/11/23 02:07:40;;;;;;;5.05;1.50;;;;;;;11.09;100.00;101339.75;4968774;28;20055;-88
2022/11/23 02:10:09;;;;;;;1.88;0.80;;;;;;;11.01;100.00;101344.63;4968764;28;20047;-88
2022/11/23 02:12:41;;;;;;;4.80;1.17;;;;;;;10.94;100.00;101350.41;4953616;28;20043;-87
2022/11/23 02:15:12;;;;;;;5.00;1.05;;;;;;;10.89;100.00;101357.13;4955312;28;20047;-86
2022/11/23 02:17:40;;;;;;;7.18;1.60;;;;;;;10.92;100.00;101359.81;4964110;28;20039;-89
2022/11/23 02:20:12;;;;;;;5.68;2.40;;;;;;;10.94;100.00;101365.94;4958948;28;20506;-86
2022/11/23 02:22:51;;;;;;;9.60;2.45;;;;;;;10.96;100.00;101369.47;4959213;28;20107;-88
2022/11/23 02:25:29;;;;;;;5.68;1.20;;;;;;;10.93;100.00;101371.97;4960789;28;20054;-89
2022/11/23 02:28:01;;;;;;;7.25;2.15;;;;;;;10.88;100.00;101382.16;4962433;28;20043;-88
2022/11/23 02:30:35;;;;;;;8.25;1.77;;;;;;;10.85;100.00;101386.31;4953326;28;20517;-89
2022/11/23 02:33:06;;;;;;;4.28;0.90;;;;;;;10.82;100.00;101386.22;4955695;28;20046;-85
2022/11/23 02:35:35;;;;;;;3.65;0.80;;;;;;;10.81;100.00;101398.28;4960993;28;20074;-87
2022/11/23 02:38:10;;;;;;;2.35;0.73;;;;;;;10.82;100.00;101392.25;4965935;28;20047;-88
2022/11/23 02:40:39;;;;;;;1.77;0.73;;;;;;;10.83;100.00;101400.91;4972342;28;20051;-87
2022/11/23 02:43:09;;;;;;;5.25;1.10;;;;;;;10.84;100.00;101402.69;4965065;28;20486;-87
2022/11/23 02:45:49;;;;;;;4.85;0.55;;;;;;;10.83;100.00;101404.38;4967087;28;20134;-87
2022/11/23 02:48:18;;;;;;;4.90;1.15;;;;;;;10.83;100.00;101419.03;4967817;28;20043;-92
2022/11/23 02:50:49;;;;;;;2.13;0.47;;;;;;;10.83;100.00;101422.47;4968484;28;20106;-90
2022/11/23 02:53:18;;;;;;;1.55;0.80;;;;;;;10.82;100.00;101417.28;4966779;28;20090;-88
2022/11/23 02:55:53;;;;;;;2.53;0.75;;;;;;;10.79;100.00;101432.66;4963567;28;20103;-91
2022/11/23 02:58:24;;;;;;;5.72;0.98;;;;;;;10.76;100.00;101443.78;4970339;28;20547;-86
2022/11/23 03:00:53;;;;;;;2.03;0.50;;;;;;;10.69;100.00;101450.41;4963070;28;20047;-85
2022/11/23 03:03:40;;;;;;;1.73;0.52;;;;;;;10.63;100.00;101452.78;4962006;28;21338;-88
2022/11/23 03:06:09;;;;;;;1.80;0.75;;;;;;;10.56;100.00;101453.34;4961310;28;20054;-87
2022/11/23 03:08:38;;;;;;;3.70;0.80;;;;;;;10.56;100.00;101461.13;4970210;28;20043;-87
2022/11/23 03:11:16;;;;;;;7.32;0.70;;;;;;;10.52;100.00;101469.56;4954686;28;20048;-86
2022/11/23 03:13:47;;;;;;;2.42;0.68;;;;;;;10.51;100.00;101478.13;4963409;28;20623;-93
2022/11/23 03:16:16;;;;;;;1.45;0.40;;;;;;;10.51;100.00;101482.44;4959090;28;20097;-88
2022/11/23 03:18:57;;;;;;;1.90;0.57;;;;;;;10.50;100.00;101486.72;4965284;28;20100;-86
2022/11/23 03:21:26;;;;;;;3.83;0.73;;;;;;;10.47;100.00;101496.97;4960068;28;20059;-88
2022/11/23 03:23:57;;;;;;;1.33;0.63;;;;;;;10.44;100.00;101504.56;4963955;28;20465;-87
2022/11/23 03:26:36;;;;;;;2.42;0.80;;;;;;;10.42;100.00;101503.63;4965368;28;20057;-89
2022/11/23 03:29:07;;;;;;;1.85;0.40;;;;;;;10.38;100.00;101507.81;4962882;28;20054;-88
2022/11/23 03:31:36;;;;;;;1.77;0.93;;;;;;;10.33;100.00;101514.50;4960601;28;20114;-87
2022/11/23 03:34:06;;;;;;;4.07;0.70;;;;;;;10.32;100.00;101524.78;4961210;28;20047;-86
2022/11/23 03:36:36;;;;;;;2.72;0.90;;;;;;;10.31;100.00;101536.81;4950372;28;20442;-85
2022/11/23 03:39:05;;;;;;;3.75;0.77;;;;;;;10.26;100.00;101533.09;4961485;28;20047;-86
2022/11/23 03:41:34;;;;;;;2.47;0.43;;;;;;;10.32;100.00;101540.28;4954371;28;20160;-86
2022/11/23 03:44:02;;;;;;;1.77;0.70;;;;;;;10.34;100.00;101554.19;4956161;28;20070;-88
2022/11/23 03:46:42;;;;;;;6.70;2.55;;;;;;;10.32;100.00;101567.03;4952687;28;20043;-86
2022/11/23 03:49:11;;;;;;;8.70;2.80;;;;;;;10.32;100.00;101574.78;4941612;28;20043;-88
2022/11/23 03:51:40;;;;;;;7.28;2.22;;;;;;;10.29;100.00;101586.72;4950240;28;20090;-88
2022/11/23 03:54:09;;;;;;;9.20;1.92;;;;;;;10.24;100.00;101589.97;4955036;28;20043;-88
2022/11/23 03:56:40;;;;;;;2.65;1.42;;;;;;;10.22;100.00;101599.34;4957395;28;20444;-88
2022/11/23 03:59:08;;;;;;;3.15;1.05;;;;;;;10.17;100.00;101611.19;4945609;28;20043;-88
2022/11/23 04:01:39;;;;;;;5.85;1.25;;;;;;;10.14;100.00;101616.22;4952321;28;20506;-89
2022/11/23 04:04:08;;;;;;;5.18;1.35;;;;;;;10.09;100.00;101617.72;4956991;28;20044;-87
2022/11/23 04:06:39;;;;;;;5.75;1.63;;;;;;;10.05;100.00;101631.31;4951849;28;20047;-88
2022/11/23 04:09:08;;;;;;;8.32;1.83;;;;;;;9.99;100.00;101637.09;4958630;28;20062;-90
2022/11/23 04:11:37;;;;;;;4.93;1.00;;;;;;;9.96;100.00;101638.66;4952378;28;20079;-90
2022/11/23 04:14:06;;;;;;;3.05;1.05;;;;;;;9.87;100.00;101644.28;4959064;28;20035;-88
2022/11/23 04:16:35;;;;;;;3.13;0.85;;;;;;;9.70;100.00;101653.81;4951212;28;20094;-88
2022/11/23 04:19:11;;;;;;;2.47;0.90;;;;;;;9.61;100.00;101674.06;4956914;28;20054;-87
2022/11/23 04:21:40;;;;;;;7.88;1.15;;;;;;;9.55;100.00;101679.84;4942126;28;20044;-87
2022/11/23 04:24:09;;;;;;;2.92;1.42;;;;;;;9.52;100.00;101682.25;4951338;28;20052;-88
2022/11/23 04:26:50;;;;;;;;;;;;;;;;;;;;;
2022/11/23 04:29:19;;;;;;;8.13;1.50;;;;;;;9.49;100.00;101691.56;4943996;28;20047;-88
2022/11/23 04:31:48;;;;;;;1.35;1.08;;;;;;;9.48;100.00;101697.53;4951926;28;20110;-88
2022/11/23 04:34:27;;;;;;;9.32;1.10;;;;;;;9.44;100.00;101699.97;4952195;28;20126;-88
2022/11/23 04:36:56;;;;;;;5.00;0.82;;;;;;;9.33;100.00;101703.72;4954949;28;20074;-89
2022/11/23 04:39:26;;;;;;;5.95;1.17;;;;;;;9.30;100.00;101708.75;4959900;28;20054;-87
2022/11/23 04:41:55;;;;;;;3.83;1.00;;;;;;;9.23;100.00;101717.88;4958203;28;20079;-88
2022/11/23 04:44:34;;;;;;;1.42;0.55;;;;;;;9.18;100.00;101718.44;4958523;28;20070;-86
2022/11/23 04:47:04;;;;;;;3.42;1.02;;;;;;;9.12;100.00;101726.78;4960001;28;20461;-87
2022/11/23 04:49:34;;;;;;;2.47;0.82;;;;;;;9.12;100.00;101733.63;4961709;28;20078;-77
2022/11/23 04:52:20;;;;;;;3.20;0.90;;;;;;;9.08;100.00;101739.44;4961059;28;20090;-88
2022/11/23 04:54:49;;;;;;;3.83;0.82;;;;;;;9.02;100.00;101738.34;4946172;28;20128;-88
2022/11/23 04:57:18;;;;;;;2.50;0.90;;;;;;;9.01;100.00;101746.88;4952256;28;20500;-88
2022/11/23 04:59:55;;;;;;;1.48;0.65;;;;;;;8.99;100.00;101753.66;4957381;28;20050;-86
2022/11/23 05:02:23;;;;;;;2.25;1.05;;;;;;;8.98;100.00;101761.31;4939154;28;20138;-85
2022/11/23 05:04:54;;;;;;;2.28;0.55;;;;;;;8.96;100.00;101768.09;4948918;28;20251;-85
2022/11/23 05:07:22;;;;;;;2.15;1.00;;;;;;;8.92;100.00;101756.72;4951835;28;20043;-86
2022/11/23 05:09:51;;;;;;;3.97;0.93;;;;;;;8.91;100.00;101757.53;4949920;28;20104;-85
2022/11/23 05:12:20;;;;;;;3.08;1.00;;;;;;;8.88;100.00;101769.38;4949413;28;20051;-84
2022/11/23 05:14:48;;;;;;;2.03;1.35;;;;;;;8.85;100.00;101759.78;4949992;28;20046;-85
2022/11/23 05:17:17;;;;;;;2.05;1.13;;;;;;;8.84;100.00;101763.16;4953608;28;20107;-86
2022/11/23 05:19:48;;;;;;;1.95;0.90;;;;;;;8.82;100.00;101769.97;4950702;28;20629;-84
2022/11/23 05:22:21;;;;;;;4.25;0.85;;;;;;;8.75;100.00;101763.59;4952936;28;20098;-89
2022/11/23 05:24:50;;;;;;;1.95;1.00;;;;;;;8.70;100.00;101753.81;4952045;28;20054;-86
2022/11/23 05:27:19;;;;;;;3.35;1.23;;;;;;;8.68;100.00;101769.22;4955701;28;20066;-88
2022/11/23 05:29:48;;;;;;;4.43;2.17;;;;;;;8.65;100.00;101770.75;4956832;28;20047;-86
2022/11/23 05:32:21;;;;;;;4.47;2.67;;;;;;;8.62;100.00;101773.16;4954116;28;20066;-86
2022/11/23 05:34:50;;;;;;;3.42;1.83;;;;;;;8.58;100.00;101775.56;4957150;28;20047;-89
2022/11/23 05:37:21;;;;;;;4.10;1.20;;;;;;;8.53;100.00;101777.03;4955961;28;20051;-85
2022/11/23 05:39:49;;;;;;;4.90;1.55;;;;;;;8.41;100.00;101768.63;4957232;28;20053;-82
2022/11/23 05:42:24;;;;;;;4.65;1.48;;;;;;;8.38;100.00;101778.72;4941633;28;20050;-83
2022/11/23 05:44:52;;;;;;;1.30;0.82;;;;;;;8.33;100.00;101780.16;4952283;28;20055;-83
2022/11/23 05:47:21;;;;;;;2.28;1.10;;;;;;;8.26;100.00;101776.38;4943819;28;20062;-83
2022/11/23 05:49:50;;;;;;;7.40;1.15;;;;;;;8.23;100.00;101775.31;4947642;28;20070;-83
2022/11/23 05:52:23;;;;;;;2.15;1.17;;;;;;;8.21;100.00;101780.38;4949111;28;20051;-85
2022/11/23 05:54:51;;;;;;;3.92;1.33;;;;;;;8.21;100.00;101785.53;4959190;28;20159;-87
2022/11/23 05:57:21;;;;;;;2.97;1.23;;;;;;;8.17;100.00;101788.75;4948245;28;20169;-88
2022/11/23 05:59:50;;;;;;;5.25;1.38;;;;;;;8.12;100.00;101792.75;4953907;28;20047;-88
2022/11/23 06:02:27;;;;;;;5.90;1.98;;;;;;;8.05;100.00;101798.38;4953105;28;20640;-88
2022/11/23 06:04:56;;;;;;;16.25;4.28;;;;;;;8.02;100.00;101812.00;4948724;28;20059;-88
2022/11/23 06:07:26;;;;;;;10.35;4.72;;;;;;;7.98;100.00;101815.19;4950333;28;20160;-87
2022/11/23 06:09:55;;;;;;;18.02;5.97;;;;;;;7.86;100.00;101809.34;4952444;28;20143;-80
2022/11/23 06:12:29;;;;;;;15.82;6.15;;;;;;;7.89;100.00;101830.13;4949965;28;20079;-84
2022/11/23 06:14:58;;;;;;;14.60;5.93;;;;;;;7.85;100.00;101835.88;4949893;28;20055;-83
2022/11/23 06:17:27;;;;;;;11.52;5.45;;;;;;;7.83;100.00;101847.78;4950125;28;20050;-82
2022/11/23 06:19:55;;;;;;;11.73;5.15;;;;;;;7.72;100.00;101849.75;4958467;28;20054;-83
2022/11/23 06:22:26;;;;;;;7.47;3.72;;;;;;;7.53;100.00;101852.94;4957455;28;20768;-86
2022/11/23 06:24:57;;;;;;;5.10;1.83;;;;;;;7.43;100.00;101858.34;4957096;28;20054;-87
2022/11/23 06:27:25;;;;;;;4.97;2.17;;;;;;;7.34;100.00;101862.13;4960819;28;20049;-87
2022/11/23 06:29:54;;;;;;;5.70;1.92;;;;;;;7.32;100.00;101875.72;4951271;28;20055;-89
2022/11/23 06:32:24;;;;;;;1.90;1.35;;;;;;;7.30;100.00;101862.72;4955727;28;20138;-88
2022/11/23 06:34:58;;;;;;;5.47;2.45;;;;;;;7.30;100.00;101861.84;4954208;28;20050;-88
2022/11/23 06:37:28;;;;;;;3.58;1.90;;;;;;;7.31;100.00;101864.53;4954913;28;20050;-89
2022/11/23 06:39:57;;;;;;;9.88;2.70;;;;;;;7.31;100.00;101859.38;4960236;28;20053;-88
2022/11/23 06:42:27;;;;;;;7.82;2.42;;;;;;;7.29;100.00;101860.97;4949132;28;20124;-88
2022/11/23 06:44:59;;;;;;;5.95;2.60;;;;;;;7.26;100.00;101868.53;4955589;28;20421;-88
2022/11/23 06:47:29;;;;;;;6.18;2.30;;;;;;;7.23;100.00;101863.16;4956140;28;20047;-88
2022/11/23 06:49:58;;;;;;;10.10;2.72;;;;;;;7.20;100.00;101864.69;4948269;28;20054;-89
2022/11/23 06:52:29;;;;;;;8.20;2.55;;;;;;;7.14;100.00;101860.03;4954336;28;20304;-89
2022/11/23 06:55:00;;;;;;;5.38;1.98;;;;;;;7.13;100.00;101860.84;4958074;28;20059;-89
2022/11/23 06:57:29;;;;;;;9.43;2.88;;;;;;;7.10;100.00;101865.78;4956795;28;20055;-88
2022/11/23 06:59:58;;;;;;;10.93;2.38;;;;;;;7.03;100.00;101864.53;4953840;28;20055;-89
2022/11/23 07:02:27;;;;;;;7.38;2.75;;;;;;;6.98;100.00;101867.59;4959066;28;20082;-89
2022/11/23 07:05:03;;;;;;;9.65;2.95;;;;;;;6.95;100.00;101864.84;4955946;28;20098;-88
2022/11/23 07:07:33;;;;;;;9.13;3.05;;;;;;;6.95;100.00;101867.44;4962772;28;20440;-90
2022/11/23 07:10:02;;;;;;;8.20;3.03;;;;;;;6.93;100.00;101869.91;4968177;28;20054;-89
2022/11/23 07:12:30;;;;;;;6.43;2.42;;;;;;;6.91;100.00;101876.63;4960676;28;20074;-90
2022/11/23 07:15:07;;;;;;;8.25;2.80;;;;;;;6.86;100.00;101871.19;4955617;28;20047;-88
2022/11/23 07:17:40;;;;;;;9.57;2.53;;;;;;;6.83;100.00;101873.59;4955049;28;20554;-88
2022/11/23 07:20:11;;;;;;;7.28;3.38;;;;;;;6.80;100.00;101870.81;4956220;28;20051;-88
2022/11/23 07:22:59;;;;;;;8.93;2.88;;;;;;;6.79;100.00;101866.47;4954960;28;20154;-89
2022/11/23 07:25:28;;;;;;;14.57;4.00;;;;;;;6.75;100.00;101863.59;4949362;28;20054;-88
2022/11/23 07:28:03;;;;;;;10.25;3.67;;;;;;;6.72;100.00;101864.31;4955799;28;20053;-89
2022/11/23 07:30:33;;;;;;;13.55;3.70;;;;;;;6.72;100.00;101874.59;4951297;28;20047;-88
2022/11/23 07:33:02;;;;;;;4.95;3.03;;;;;;;6.68;100.00;101867.47;4949818;28;20115;-87
2022/11/23 07:35:32;;;;;;;9.52;3.60;;;;;;;6.66;100.00;101869.94;4952597;28;20872;-87
2022/11/23 07:38:08;;;;;;;13.07;3.80;;;;;;;6.61;100.00;101871.34;4949615;28;20121;-87
2022/11/23 07:40:38;;;;;;;10.07;2.72;;;;;;;6.59;100.00;101872.91;4944639;28;20051;-87
2022/11/23 07:43:08;;;;;;;6.72;3.20;;;;;;;6.56;100.00;101877.00;4940756;28;20051;-87
2022/11/23 07:45:43;;;;;;;4.45;2.78;;;;;;;6.41;100.00;101859.78;4960843;28;20055;-88
2022/11/23 07:48:12;;;;;;;12.27;4.15;;;;;;;6.46;100.00;101873.84;4943015;28;20057;-87
2022/11/23 07:50:41;;;;;;;4.47;2.60;;;;;;;6.42;100.00;101866.72;4952553;28;20490;-86
2022/11/23 07:53:11;;;;;;;8.20;2.92;;;;;;;6.40;100.00;101862.28;4948908;28;20052;-88
2022/11/23 07:55:43;;;;;;;11.63;3.53;;;;;;;6.35;100.00;101855.97;4954750;28;20556;-88
2022/11/23 07:58:13;;;;;;;5.03;2.90;;;;;;;6.34;100.00;101864.44;4955545;28;20066;-89
2022/11/23 08:00:42;;;;;;;6.75;2.83;;;;;;;6.30;100.00;101871.09;4953288;28;20122;-89
2022/11/23 08:03:14;;;;;;;5.63;2.22;;;;;;;6.26;100.00;101861.38;4949708;28;20051;-88
2022/11/23 08:05:42;;;;;;;7.80;2.13;;;;;;;6.22;100.00;101865.44;4947198;28;20051;-88
2022/11/23 08:08:15;;;;;;;3.40;1.90;;;;;;;6.19;100.00;101869.50;4951813;28;20051;-88
2022/11/23 08:10:44;;;;;;;6.28;1.50;;;;;;;6.15;100.00;101877.78;4958380;28;20048;-86
2022/11/23 08:13:13;;;;;;;4.22;1.85;;;;;;;6.10;100.00;101884.31;4950005;28;20052;-87
2022/11/23 08:15:41;;;;;;;5.38;2.63;;;;;;;6.00;100.00;101885.38;4956893;28;20048;-87
2022/11/23 08:18:18;;;;;;;5.53;2.20;;;;;;;5.91;100.00;101887.28;4951667;28;20758;-87
2022/11/23 08:20:47;;;;;;;4.93;1.75;;;;;;;5.85;100.00;101887.78;4952320;28;20052;-87
2022/11/23 08:23:17;;;;;;;3.50;2.35;;;;;;;5.83;100.00;101887.69;4947056;28;20102;-88
2022/11/23 08:25:46;;;;;;;2.53;1.27;;;;;;;5.83;100.00;101884.22;4951450;28;20055;-89
2022/11/23 08:28:15;;;;;;;3.58;1.65;;;;;;;5.81;100.00;101890.94;4954256;28;20055;-87
2022/11/23 08:30:43;;;;;;;3.30;1.30;;;;;;;5.79;100.00;101897.63;4950636;28;20051;-87
2022/11/23 08:33:14;;;;;;;3.33;1.60;;;;;;;5.73;100.00;101902.38;4951692;28;20069;-87
2022/11/23 08:35:43;;;;;;;7.95;2.20;;;;;;;5.69;100.00;101902.97;4951030;28;20074;-87
2022/11/23 08:38:13;;;;;;;6.80;1.65;;;;;;;5.71;100.00;101904.84;4951905;28;20069;-87
2022/11/23 08:40:43;;;;;;;1.88;0.98;;;;;;;5.70;100.00;101907.28;4954986;28;20106;-87
2022/11/23 08:43:20;;;;;;;1.80;0.80;;;;;;;5.68;100.00;101894.38;4951125;28;20047;-87
2022/11/23 08:45:58;;;;;;;3.95;1.20;;;;;;;5.66;100.00;101890.81;4954031;28;20051;-86
2022/11/23 08:48:33;;;;;;;3.88;1.33;;;;;;;5.55;100.00;101892.63;4957450;28;20355;-87
2022/11/23 08:51:03;;;;;;;2.85;1.35;;;;;;;5.45;100.00;101890.22;4955238;28;20055;-88
2022/11/23 08:53:31;;;;;;;2.95;1.50;;;;;;;5.41;100.00;101885.69;4951048;28;20047;-86
2022/11/23 08:56:04;;;;;;;5.72;1.83;;;;;;;5.39;100.00;101890.69;4947759;28;20102;-86
2022/11/23 08:58:33;;;;;;;5.60;2.05;;;;;;;5.37;100.00;101888.81;4950753;28;20043;-87
2022/11/23 09:01:02;;;;;;;3.97;1.38;;;;;;;5.35;100.00;101898.09;4949337;28;20061;-87
2022/11/23 09:03:31;;;;;;;8.32;3.40;;;;;;;5.32;100.00;101911.59;4949219;28;20051;-88
2022/11/23 09:06:04;;;;;;;9.95;2.15;;;;;;;5.31;100.00;101911.47;4949880;28;20051;-88
2022/11/23 09:08:33;;;;;;;3.97;1.33;;;;;;;5.31;100.00;101906.34;4951227;28;20056;-88
2022/11/23 09:11:04;;;;;;;4.75;1.27;;;;;;;5.29;100.00;101913.97;4955104;28;20043;-87
2022/11/23 09:13:35;;;;;;;3.40;1.02;;;;;;;5.19;100.00;101917.53;4953868;28;20077;-86
2022/11/23 09:16:05;;;;;;;4.38;1.13;;;;;;;5.10;100.00;101926.28;4952365;28;20063;-87
2022/11/23 09:18:35;;;;;;;4.15;1.73;;;;;;;5.07;100.00;101926.06;4953440;28;20142;-86
2022/11/23 09:21:05;;;;;;;2.60;1.40;;;;;;;5.06;100.00;101926.84;4949194;28;20121;-88
2022/11/23 09:23:35;;;;;;;2.22;0.80;;;;;;;5.06;100.00;101925.16;4950440;28;20055;-87
2022/11/23 09:26:11;;;;;;;1.00;0.70;;;;;;;5.07;100.00;101931.22;4954417;28;20057;-87
2022/11/23 09:28:39;;;;;;;2.88;1.05;;;;;;;5.06;100.00;101927.72;4949671;28;20057;-87
2022/11/23 09:31:09;;;;;;;3.38;1.23;;;;;;;5.04;100.00;101926.75;4945135;28;20055;-86
2022/11/23 09:33:37;;;;;;;2.22;0.88;;;;;;;5.01;100.00;101936.78;4949161;28;20105;-87
2022/11/23 09:36:07;;;;;;;3.03;1.42;;;;;;;4.99;100.00;101943.47;4948645;28;20051;-86
2022/11/23 09:38:35;;;;;;;2.13;1.23;;;;;;;4.97;100.00;101945.94;4956603;28;20130;-86
2022/11/23 09:41:17;;;;;;;2.30;1.10;;;;;;;4.93;100.00;101953.31;4945943;28;20051;-87
2022/11/23 09:43:58;;;;;;;3.40;1.13;;;;;;;4.85;100.00;101949.31;4950627;28;20047;-86
2022/11/23 09:46:38;;;;;;;2.08;0.90;;;;;;;4.80;100.00;101952.41;4953798;28;20047;-86
2022/11/23 09:49:16;;;;;;;2.90;1.10;;;;;;;4.75;100.00;101952.88;4956288;28;20047;-86
2022/11/23 09:51:46;;;;;;;5.88;2.35;;;;;;;4.74;100.00;101953.66;4949595;28;20039;-85
2022/11/23 09:54:27;;;;;;;4.70;1.75;;;;;;;4.72;100.00;101970.59;4952563;28;20051;-87
2022/11/23 09:56:59;;;;;;;3.58;1.60;;;;;;;4.71;100.00;101973.94;4946995;28;20055;-86
2022/11/23 09:59:43;;;;;;;5.22;2.13;;;;;;;4.69;100.00;101984.09;4953359;28;20069;-87
2022/11/23 10:02:21;;;;;;;2.40;1.65;;;;;;;4.68;100.00;101982.31;4952672;28;20505;-87
2022/11/23 10:04:51;;;;;;;5.18;1.17;;;;;;;4.65;100.00;101987.22;4953636;28;20059;-85
2022/11/23 10:07:37;;;;;;;4.35;1.58;;;;;;;4.60;100.00;101986.88;4954252;28;20498;-86
2022/11/23 10:10:21;;;;;;;6.20;2.33;;;;;;;4.62;100.00;101994.66;4950847;28;20073;-86
2022/11/23 10:13:03;;;;;;;3.78;1.42;;;;;;;4.59;100.00;101997.91;4943330;28;20098;-85
2022/11/23 10:15:40;;;;;;;3.22;2.05;;;;;;;4.55;100.00;101998.44;4949511;28;20054;-85
2022/11/23 10:18:22;;;;;;;5.38;1.55;;;;;;;4.45;100.00;102007.94;4943528;28;20051;-85
2022/11/23 10:20:59;;;;;;;5.50;1.50;;;;;;;4.38;100.00;102004.91;4948406;28;20115;-85
2022/11/23 10:23:47;;;;;;;2.70;1.58;;;;;;;4.39;100.00;102014.38;4940702;28;20051;-86
2022/11/23 10:26:19;;;;;;;3.42;1.50;;;;;;;4.39;100.00;102014.38;4948668;28;20088;-87
2022/11/23 10:28:50;;;;;;;3.28;1.25;;;;;;;4.36;100.00;102014.16;4943661;28;20058;-87
2022/11/23 10:31:20;;;;;;;3.90;1.25;;;;;;;4.29;100.00;102016.16;4952886;28;20163;-86
2022/11/23 10:33:58;;;;;;;4.07;1.83;;;;;;;4.28;100.00;102025.47;4956786;28;20055;-86
2022/11/23 10:36:27;;;;;;;4.20;1.10;;;;;;;4.24;100.00;102026.06;4944933;28;20146;-86
2022/11/23 10:38:59;;;;;;;2.65;1.38;;;;;;;4.21;100.00;102030.91;4941565;28;20047;-87
2022/11/23 10:41:31;;;;;;;3.83;1.30;;;;;;;4.21;100.00;102030.91;4949813;28;20043;-87
2022/11/23 10:44:07;;;;;;;3.53;1.70;;;;;;;4.20;100.00;102042.84;4946162;28;20070;-88
2022/11/23 10:46:41;;;;;;;2.70;1.27;;;;;;;4.20;100.00;102045.41;4966614;28;20069;-88
2022/11/23 10:49:19;;;;;;;0.80;0.75;;;;;;;4.17;100.00;102041.75;4965157;28;20043;-89
2022/11/23 10:51:56;;;;;;;3.53;1.65;;;;;;;4.14;100.00;102046.59;4963531;28;20079;-90
2022/11/23 10:54:28;;;;;;;2.80;0.90;;;;;;;4.13;100.00;102055.09;4960315;28;20050;-90
2022/11/23 10:57:04;;;;;;;3.23;1.20;;;;;;;4.09;100.00;102048.81;4965016;28;20138;-90
2022/11/23 10:59:39;;;;;;;1.65;1.20;;;;;;;4.09;100.00;102053.94;4949973;28;20058;-89
2022/11/23 11:02:19;;;;;;;3.30;1.10;;;;;;;4.08;100.00;102056.41;4952593;28;20050;-90
2022/11/23 11:04:49;;;;;;;2.38;1.30;;;;;;;4.08;100.00;102061.53;4956384;28;20781;-90
2022/11/23 11:07:24;;;;;;;1.80;1.30;;;;;;;4.06;100.00;102057.97;4963145;28;20082;-88
2022/11/23 11:09:56;;;;;;;1.45;0.93;;;;;;;4.05;100.00;102053.59;4963709;28;20058;-89
2022/11/23 11:12:25;;;;;;;2.45;1.10;;;;;;;4.01;100.00;102054.13;4959323;28;20069;-88
2022/11/23 11:15:05;;;;;;;2.90;1.13;;;;;;;3.99;100.00;102056.59;4952816;28;20106;-88
2022/11/23 11:17:40;;;;;;;1.83;0.95;;;;;;;3.96;100.00;102058.91;4947991;28;20503;-89
2022/11/23 11:20:31;;;;;;;2.85;1.13;;;;;;;3.94;100.00;102055.31;4951231;28;20568;-87
2022/11/23 11:23:03;;;;;;;3.10;1.25;;;;;;;3.94;100.00;102058.81;4948908;28;20118;-88
2022/11/23 11:25:34;;;;;;;2.03;0.93;;;;;;;3.92;100.00;102057.78;4943688;28;20077;-87
2022/11/23 11:28:04;;;;;;;2.20;1.00;;;;;;;3.91;100.00;102053.41;4949061;28;20200;-87
2022/11/23 11:31:04;;;;;;;1.00;0.90;;;;;;;3.88;100.00;102053.19;4952127;28;20121;-89
2022/11/23 11:33:41;;;;;;;1.58;0.82;;;;;;;3.86;100.00;102059.88;4952559;28;21206;-89
2022/11/23 11:36:11;;;;;;;3.45;1.70;;;;;;;3.84;100.00;102065.66;4951052;28;20062;-89
2022/11/23 11:38:42;;;;;;;1.10;0.95;;;;;;;3.84;100.00;102071.66;4948546;28;20052;-89
2022/11/23 11:41:14;;;;;;;1.52;1.20;;;;;;;3.82;100.00;102067.19;4958857;28;20071;-89
2022/11/23 11:43:47;;;;;;;1.98;0.93;;;;;;;3.82;100.00;102072.31;4961246;28;20457;-89
2022/11/23 11:46:23;;;;;;;3.20;1.15;;;;;;;3.79;100.00;102070.41;4965703;28;20094;-89